^^
B2 Weather Station Historical Data
 
Daily Summary for September 20, 2017 Units:  English    Metric   Both
« Previous Day
Next Day »
Daily Weekly Monthly Yearly Custom
  Current: High: Low: Average:
Temperature: 75.9 °F 75.9 °F 57.8 °F 62 °F
Dew Point: 71.4 °F 71.5 °F 57.0 °F 60.9 °F
Humidity: 86 % 98 % 86 % 96 %
Wind Speed: 5.8 mph 9.2 mph 0.0 mph 1.3 mph
Wind Gust: 5.8 mph 9.2 mph - -
Wind:South - - East
Pressure: 29.90 in 29.92 in 29.88 in -
Precipitation: 0.01 in      
Historical Graphs
 
 
Tabular Data for September 20, 2017
Time Temperature Dew Point Pressure Wind Wind Speed Wind Gust Humidity Rainfall Rate (Hourly) solar Conditions
00:04 61.9 °F 61.0 °F 29.90 in Calm     97 % 0.00 in 0.0 W/m2 RA
00:09 62.1 °F 61.2 °F 29.89 in Calm     97 % 0.00 in 0.0 W/m2 RA
00:14 62.1 °F 61.2 °F 29.89 in Calm     97 % 0.00 in 0.0 W/m2 CLR
00:19 62.2 °F 61.0 °F 29.89 in Calm     96 % 0.00 in 0.0 W/m2 CLR
00:24 62.2 °F 61.0 °F 29.89 in Calm     96 % 0.00 in 0.0 W/m2 CLR
00:29 62.2 °F 61.0 °F 29.89 in Calm     96 % 0.00 in 0.0 W/m2 CLR
00:34 62.2 °F 61.0 °F 29.89 in Calm     96 % 0.00 in 0.0 W/m2 CLR
00:39 62.0 °F 60.8 °F 29.89 in Calm     96 % 0.00 in 0.0 W/m2 CLR
00:44 61.9 °F 60.7 °F 29.89 in Calm     96 % 0.00 in 0.0 W/m2 CLR
00:49 61.8 °F 60.6 °F 29.89 in Calm     96 % 0.00 in 0.0 W/m2 CLR
00:54 61.7 °F 60.5 °F 29.89 in Calm     96 % 0.00 in 0.0 W/m2 CLR
00:59 61.6 °F 60.4 °F 29.90 in Calm     96 % 0.00 in 0.0 W/m2 CLR
01:04 61.1 °F 60.0 °F 29.89 in Calm     96 % 0.00 in 0.0 W/m2 CLR
01:09 60.6 °F 59.5 °F 29.90 in Calm     96 % 0.00 in 0.0 W/m2 CLR
01:14 60.1 °F 58.7 °F 29.89 in Calm     95 % 0.00 in 0.0 W/m2 CLR
01:19 59.4 °F 58.0 °F 29.89 in Calm     95 % 0.00 in 0.0 W/m2 CLR
01:24 59.4 °F 58.3 °F 29.89 in Calm     96 % 0.00 in 0.0 W/m2 CLR
01:29 59.6 °F 58.5 °F 29.89 in Calm     96 % 0.00 in 0.0 W/m2 CLR
01:34 59.4 °F 58.3 °F 29.89 in Calm     96 % 0.00 in 0.0 W/m2 CLR
01:39 58.9 °F 57.8 °F 29.89 in Calm     96 % 0.00 in 0.0 W/m2 CLR
01:40 58.8 °F 57.7 °F 29.89 in Calm     96 % 0.00 in 0.0 W/m2 CLR
01:45 58.4 °F 57.3 °F 29.89 in Calm     96 % 0.00 in 0.0 W/m2 CLR
01:50 58.5 °F 57.4 °F 29.89 in Calm     96 % 0.00 in 0.0 W/m2 BKN
01:55 59.0 °F 58.2 °F 29.89 in Calm     97 % 0.00 in 0.0 W/m2 BKN
02:00 59.3 °F 58.4 °F 29.88 in Calm     97 % 0.00 in 0.0 W/m2 BKN
02:05 59.7 °F 58.8 °F 29.88 in Calm     97 % 0.00 in 0.0 W/m2 SCT
02:10 59.8 °F 58.9 °F 29.88 in Calm     97 % 0.00 in 0.0 W/m2 SCT
02:15 60.0 °F 59.1 °F 29.89 in Calm     97 % 0.00 in 0.0 W/m2 SCT
02:20 60.3 °F 59.4 °F 29.88 in Calm     97 % 0.00 in 0.0 W/m2 SCT
02:25 60.3 °F 59.4 °F 29.88 in Calm     97 % 0.00 in 0.0 W/m2 SCT
02:30 60.0 °F 59.1 °F 29.88 in Calm     97 % 0.00 in 0.0 W/m2 SCT
02:35 59.7 °F 58.6 °F 29.88 in Calm     96 % 0.00 in 0.0 W/m2 CLR
02:40 59.7 °F 58.8 °F 29.88 in Calm     97 % 0.00 in 0.0 W/m2 CLR
02:45 59.9 °F 59.0 °F 29.88 in Calm     97 % 0.00 in 0.0 W/m2 CLR
02:50 60.0 °F 59.1 °F 29.88 in Calm     97 % 0.00 in 0.0 W/m2 CLR
02:56 60.1 °F 59.2 °F 29.88 in Calm     97 % 0.00 in 0.0 W/m2 CLR
03:01 60.2 °F 59.3 °F 29.88 in Calm     97 % 0.00 in 0.0 W/m2 CLR
03:06 59.6 °F 58.5 °F 29.88 in Calm     96 % 0.00 in 0.0 W/m2 CLR
03:11 59.3 °F 58.4 °F 29.88 in Calm     97 % 0.00 in 0.0 W/m2 CLR
03:16 59.2 °F 58.3 °F 29.88 in Calm     97 % 0.00 in 0.0 W/m2 CLR
03:21 59.1 °F 58.2 °F 29.88 in Calm     97 % 0.00 in 0.0 W/m2 CLR
03:26 59.1 °F 58.2 °F 29.88 in Calm     97 % 0.00 in 0.0 W/m2 CLR
03:31 58.9 °F 58.1 °F 29.88 in Calm     97 % 0.00 in 0.0 W/m2 SCT
03:36 58.7 °F 57.9 °F 29.88 in Calm     97 % 0.00 in 0.0 W/m2 SCT
03:41 58.7 °F 57.9 °F 29.88 in Calm     97 % 0.00 in 0.0 W/m2 SCT
03:46 58.8 °F 58.0 °F 29.89 in Calm     97 % 0.00 in 0.0 W/m2 SCT
03:51 59.0 °F 58.2 °F 29.89 in Calm     97 % 0.00 in 0.0 W/m2 SCT
03:56 59.1 °F 58.2 °F 29.89 in Calm     97 % 0.00 in 0.0 W/m2 SCT
04:01 59.3 °F 58.4 °F 29.89 in Calm     97 % 0.00 in 0.0 W/m2 CLR
04:06 59.6 °F 58.7 °F 29.89 in Calm     97 % 0.00 in 0.0 W/m2 CLR
04:11 59.0 °F 58.2 °F 29.89 in Calm     97 % 0.00 in 0.0 W/m2 CLR
04:16 58.5 °F 57.4 °F 29.89 in Calm     96 % 0.00 in 0.0 W/m2 CLR
04:21 58.2 °F 57.4 °F 29.89 in Calm     97 % 0.00 in 0.0 W/m2 CLR
04:26 58.1 °F 57.3 °F 29.89 in Calm     97 % 0.00 in 0.0 W/m2 CLR
04:31 58.2 °F 57.4 °F 29.89 in Calm     97 % 0.00 in 0.0 W/m2 CLR
04:36 58.3 °F 57.5 °F 29.89 in Calm     97 % 0.00 in 0.0 W/m2 CLR
04:41 58.5 °F 57.7 °F 29.90 in Calm     97 % 0.00 in 0.0 W/m2 CLR
04:46 58.7 °F 57.9 °F 29.90 in Calm     97 % 0.00 in 0.0 W/m2 CLR
04:51 58.7 °F 57.9 °F 29.90 in Calm     97 % 0.00 in 0.0 W/m2 CLR
04:56 58.4 °F 57.6 °F 29.90 in Calm     97 % 0.00 in 0.0 W/m2 CLR
05:01 58.0 °F 57.2 °F 29.89 in Calm     97 % 0.00 in 0.0 W/m2
05:06 57.8 °F 57.0 °F 29.90 in Calm     97 % 0.00 in 0.0 W/m2
05:11 58.0 °F 57.2 °F 29.90 in Calm     97 % 0.00 in 0.0 W/m2
05:16 58.3 °F 57.5 °F 29.90 in Calm     97 % 0.00 in 0.0 W/m2
05:21 58.5 °F 57.7 °F 29.90 in Calm     97 % 0.00 in 0.0 W/m2
05:26 59.0 °F 58.2 °F 29.90 in Calm     97 % 0.00 in 0.0 W/m2
05:31 58.7 °F 57.9 °F 29.90 in Calm     97 % 0.00 in 0.0 W/m2 CLR
05:36 59.0 °F 58.2 °F 29.90 in Calm     97 % 0.00 in 0.0 W/m2 CLR
05:41 58.3 °F 57.5 °F 29.91 in Calm     97 % 0.00 in 0.0 W/m2 CLR
05:46 58.2 °F 57.4 °F 29.90 in Calm     97 % 0.00 in 0.0 W/m2 CLR
05:51 58.7 °F 57.9 °F 29.91 in Calm     97 % 0.00 in 0.0 W/m2 CLR
05:56 59.0 °F 58.2 °F 29.91 in Calm     97 % 0.00 in 0.0 W/m2 CLR
06:01 59.0 °F 58.2 °F 29.91 in Calm     97 % 0.00 in 0.0 W/m2 CLR
06:06 58.8 °F 58.0 °F 29.91 in Calm     97 % 0.00 in 0.0 W/m2 CLR
06:11 59.0 °F 58.2 °F 29.91 in Calm     97 % 0.00 in 0.0 W/m2 CLR
06:16 59.4 °F 58.5 °F 29.91 in Calm     97 % 0.00 in 0.0 W/m2 CLR
06:18 59.5 °F 58.6 °F 29.91 in Calm     97 % 0.00 in 0.0 W/m2 CLR
06:23 59.5 °F 58.6 °F 29.91 in Calm     97 % 0.00 in 0.0 W/m2 CLR
06:28 59.6 °F 58.7 °F 29.91 in Calm     97 % 0.00 in 0.0 W/m2 CLR
06:33 59.9 °F 59.0 °F 29.91 in Calm     97 % 0.00 in 0.0 W/m2 CLR
06:38 60.2 °F 59.3 °F 29.91 in Calm     97 % 0.00 in 0.0 W/m2 CLR
06:43 60.4 °F 59.5 °F 29.91 in Calm     97 % 0.00 in 0.0 W/m2 CLR
06:48 60.7 °F 59.8 °F 29.91 in Calm     97 % 0.00 in 9.0 W/m2 CLR
06:53 60.9 °F 60.0 °F 29.91 in Calm     97 % 0.00 in 11.0 W/m2 CLR
06:58 61.1 °F 60.2 °F 29.91 in Calm     97 % 0.00 in 16.0 W/m2 CLR
07:03 61.3 °F 60.4 °F 29.91 in Calm     97 % 0.00 in 21.0 W/m2 CLR
07:04 61.3 °F 60.4 °F 29.91 in Calm     97 % 0.00 in 23.0 W/m2 CLR
07:09 61.6 °F 60.7 °F 29.91 in Calm     97 % 0.00 in 30.0 W/m2 CLR
07:14 61.9 °F 61.0 °F 29.91 in Calm     97 % 0.00 in 37.0 W/m2 CLR
07:19 62.2 °F 61.6 °F 29.91 in Calm     98 % 0.00 in 47.0 W/m2 CLR
07:24 62.6 °F 61.7 °F 29.91 in Calm     97 % 0.00 in 56.0 W/m2 CLR
07:29 63.1 °F 62.2 °F 29.91 in Calm     97 % 0.00 in 67.0 W/m2 CLR
07:34 63.5 °F 62.9 °F 29.91 in Calm     98 % 0.00 in 79.0 W/m2 CLR
07:39 63.9 °F 63.0 °F 29.92 in NNE 3.5 mph 3.5 mph 97 % 0.00 in 90.0 W/m2 CLR
07:44 64.3 °F 63.7 °F 29.92 in NNE 3.5 mph 3.5 mph 98 % 0.00 in 104.0 W/m2 CLR
07:49 64.6 °F 64.0 °F 29.92 in NNE 4.6 mph 4.6 mph 98 % 0.00 in 116.0 W/m2 CLR
07:54 65.0 °F 64.4 °F 29.92 in NNE 2.3 mph 2.3 mph 98 % 0.00 in 123.0 W/m2 CLR
07:59 65.4 °F 64.8 °F 29.92 in NNE 4.6 mph 4.6 mph 98 % 0.00 in 127.0 W/m2 CLR
08:04 65.7 °F 65.1 °F 29.92 in NNE 3.5 mph 3.5 mph 98 % 0.00 in 134.0 W/m2 CLR
08:09 66.3 °F 65.4 °F 29.91 in NNE 3.5 mph 3.5 mph 97 % 0.00 in 153.0 W/m2 CLR
08:14 66.6 °F 66.0 °F 29.91 in NE 3.5 mph 3.5 mph 98 % 0.00 in 179.0 W/m2 CLR
08:19 67.0 °F 66.1 °F 29.91 in NE 4.6 mph 4.6 mph 97 % 0.00 in 193.0 W/m2 CLR
08:24 67.4 °F 66.8 °F 29.91 in NE 3.5 mph   98 % 0.00 in 209.0 W/m2 CLR
08:29 68.0 °F 67.4 °F 29.91 in East 3.5 mph 3.5 mph 98 % 0.01 in 221.0 W/m2 RA
08:34 68.4 °F 67.5 °F 29.91 in East 6.9 mph 6.9 mph 97 % 0.01 in 234.0 W/m2 RA
08:39 68.9 °F 68.0 °F 29.91 in East 6.0 mph 6.0 mph 97 % 0.01 in 248.0 W/m2 CLR
08:44 69.5 °F 68.6 °F 29.90 in East 6.9 mph 6.9 mph 97 % 0.01 in 262.0 W/m2 CLR
08:49 70.3 °F 69.4 °F 29.91 in East 6.9 mph 6.9 mph 97 % 0.01 in 278.0 W/m2 CLR
08:54 70.9 °F 70.0 °F 29.91 in East 7.0 mph 7.0 mph 97 % 0.01 in 290.0 W/m2 CLR
08:59 71.3 °F 70.4 °F 29.91 in SSE 6.9 mph 6.9 mph 97 % 0.01 in 301.0 W/m2 CLR
09:04 71.9 °F 70.4 °F 29.91 in SSE 9.2 mph 9.2 mph 95 % 0.01 in 308.0 W/m2 CLR
09:09 72.4 °F 70.6 °F 29.90 in South 8.1 mph 8.1 mph 94 % 0.01 in 315.0 W/m2 CLR
09:14 73.1 °F 71.0 °F 29.90 in South 5.8 mph 5.8 mph 93 % 0.01 in 322.0 W/m2 CLR
09:19 73.6 °F 70.5 °F 29.90 in South 9.2 mph 9.2 mph 90 % 0.01 in 327.0 W/m2 CLR
09:24 74.0 °F 70.9 °F 29.90 in South 8.1 mph 8.1 mph 90 % 0.01 in 334.0 W/m2 CLR
09:29 74.4 °F 70.9 °F 29.90 in South 6.9 mph 6.9 mph 89 % 0.00 in 341.0 W/m2 CLR
09:34 75.0 °F 71.5 °F 29.90 in South 6.9 mph 6.9 mph 89 % 0.00 in 346.0 W/m2 CLR
09:39 75.5 °F 71.4 °F 29.90 in South 8.1 mph 8.1 mph 87 % 0.00 in 353.0 W/m2 CLR
09:44 75.9 °F 71.4 °F 29.90 in South 5.8 mph 5.8 mph 86 % 0.00 in 364.0 W/m2 CLR
Bourbonnais, Illinois, USA
Compliments of Weather Underground - 1.5 mb